sensor_id;sensor_type;location;lat;lon;timestamp;pressure;altitude;pressure_sealevel;temperature;humidity
30081;BME280;16902;50.816;12.828;2024-03-23T00:54:25;96972.31;;;5.57;100.00
30081;BME280;16902;50.816;12.828;2024-03-23T00:59:26;96961.28;;;5.72;100.00
30081;BME280;16902;50.816;12.828;2024-03-23T01:04:28;96959.63;;;5.79;100.00
30081;BME280;16902;50.816;12.828;2024-03-23T01:09:29;96950.38;;;5.92;100.00
30081;BME280;16902;50.816;12.828;2024-03-23T01:14:30;96943.34;;;6.09;100.00
30081;BME280;16902;50.816;12.828;2024-03-23T01:19:30;96923.22;;;5.97;100.00
30081;BME280;16902;50.816;12.828;2024-03-23T01:24:31;96915.22;;;5.75;100.00
30081;BME280;16902;50.816;12.828;2024-03-23T01:29:32;96912.41;;;5.62;100.00
30081;BME280;16902;50.816;12.828;2024-03-23T01:34:33;96901.03;;;5.48;100.00
30081;BME280;16902;50.816;12.828;2024-03-23T01:39:33;96892.97;;;5.51;100.00
30081;BME280;16902;50.816;12.828;2024-03-23T01:44:34;96881.38;;;5.39;100.00
30081;BME280;16902;50.816;12.828;2024-03-23T01:49:35;96882.72;;;5.27;100.00
30081;BME280;16902;50.816;12.828;2024-03-23T01:54:36;96872.69;;;4.93;100.00
30081;BME280;16902;50.816;12.828;2024-03-23T01:59:37;96865.31;;;4.81;100.00
30081;BME280;16902;50.816;12.828;2024-03-23T02:04:37;96860.50;;;4.70;100.00
30081;BME280;16902;50.816;12.828;2024-03-23T02:09:38;96861.44;;;4.77;100.00
30081;BME280;16902;50.816;12.828;2024-03-23T02:14:39;96857.38;;;4.91;100.00
30081;BME280;16902;50.816;12.828;2024-03-23T02:19:39;96862.47;;;5.07;100.00
30081;BME280;16902;50.816;12.828;2024-03-23T02:24:40;96865.91;;;5.39;100.00
30081;BME280;16902;50.816;12.828;2024-03-23T02:29:41;96857.91;;;5.57;100.00
30081;BME280;16902;50.816;12.828;2024-03-23T02:34:42;96830.88;;;5.67;100.00
30081;BME280;16902;50.816;12.828;2024-03-23T02:39:42;96829.81;;;5.62;100.00
30081;BME280;16902;50.816;12.828;2024-03-23T02:44:44;96823.47;;;5.64;100.00
30081;BME280;16902;50.816;12.828;2024-03-23T02:49:45;96817.88;;;5.61;100.00
30081;BME280;16902;50.816;12.828;2024-03-23T02:54:46;96815.16;;;5.54;100.00
30081;BME280;16902;50.816;12.828;2024-03-23T02:59:47;96802.31;;;5.69;100.00
30081;BME280;16902;50.816;12.828;2024-03-23T03:04:47;96803.16;;;5.84;100.00
30081;BME280;16902;50.816;12.828;2024-03-23T03:09:48;96818.09;;;5.97;100.00
30081;BME280;16902;50.816;12.828;2024-03-23T03:14:49;96812.19;;;6.11;100.00
30081;BME280;16902;50.816;12.828;2024-03-23T03:19:49;96797.94;;;6.15;100.00
30081;BME280;16902;50.816;12.828;2024-03-23T03:24:56;96787.22;;;6.18;100.00
30081;BME280;16902;50.816;12.828;2024-03-23T03:29:56;96792.78;;;6.30;100.00
30081;BME280;16902;50.816;12.828;2024-03-23T03:34:57;96790.13;;;6.38;100.00
30081;BME280;16902;50.816;12.828;2024-03-23T03:39:58;96791.72;;;6.39;100.00
30081;BME280;16902;50.816;12.828;2024-03-23T03:44:58;96777.91;;;6.32;100.00
30081;BME280;16902;50.816;12.828;2024-03-23T03:49:59;96766.56;;;6.33;100.00
30081;BME280;16902;50.816;12.828;2024-03-23T03:55:03;96754.56;;;6.26;100.00
30081;BME280;16902;50.816;12.828;2024-03-23T04:00:06;96752.03;;;6.17;100.00
30081;BME280;16902;50.816;12.828;2024-03-23T04:05:07;96726.72;;;6.13;100.00
30081;BME280;16902;50.816;12.828;2024-03-23T04:10:08;96712.28;;;6.18;100.00
30081;BME280;16902;50.816;12.828;2024-03-23T04:15:09;96696.69;;;6.12;100.00
30081;BME280;16902;50.816;12.828;2024-03-23T04:20:10;96691.00;;;6.02;100.00
30081;BME280;16902;50.816;12.828;2024-03-23T04:25:13;96688.41;;;6.02;100.00
30081;BME280;16902;50.816;12.828;2024-03-23T04:30:15;96685.13;;;6.08;100.00
30081;BME280;16902;50.816;12.828;2024-03-23T04:35:16;96689.47;;;6.07;100.00
30081;BME280;16902;50.816;12.828;2024-03-23T04:40:17;96679.59;;;6.11;100.00
30081;BME280;16902;50.816;12.828;2024-03-23T04:45:18;96660.53;;;5.97;100.00
30081;BME280;16902;50.816;12.828;2024-03-23T04:50:19;96628.66;;;6.05;100.00
30081;BME280;16902;50.816;12.828;2024-03-23T04:55:19;96604.50;;;5.98;100.00
30081;BME280;16902;50.816;12.828;2024-03-23T05:00:22;96607.72;;;6.00;100.00
30081;BME280;16902;50.816;12.828;2024-03-23T05:05:23;96600.03;;;6.06;100.00
30081;BME280;16902;50.816;12.828;2024-03-23T05:10:24;96606.34;;;6.18;100.00
30081;BME280;16902;50.816;12.828;2024-03-23T05:15:25;96593.97;;;6.29;100.00
30081;BME280;16902;50.816;12.828;2024-03-23T05:20:25;96577.84;;;6.12;100.00
30081;BME280;16902;50.816;12.828;2024-03-23T05:25:26;96557.25;;;6.04;100.00
30081;BME280;16902;50.816;12.828;2024-03-23T05:30:27;96572.34;;;6.00;100.00
30081;BME280;16902;50.816;12.828;2024-03-23T05:35:27;96577.31;;;6.16;100.00
30081;BME280;16902;50.816;12.828;2024-03-23T05:40:28;96561.06;;;6.23;100.00
30081;BME280;16902;50.816;12.828;2024-03-23T05:45:29;96538.34;;;6.18;100.00
30081;BME280;16902;50.816;12.828;2024-03-23T05:50:30;96529.63;;;6.04;100.00
30081;BME280;16902;50.816;12.828;2024-03-23T05:55:31;96560.25;;;6.22;100.00
30081;BME280;16902;50.816;12.828;2024-03-23T06:00:32;96509.38;;;6.23;100.00
30081;BME280;16902;50.816;12.828;2024-03-23T06:05:33;96500.25;;;6.05;100.00
30081;BME280;16902;50.816;12.828;2024-03-23T06:10:34;96508.97;;;6.19;100.00
30081;BME280;16902;50.816;12.828;2024-03-23T06:15:34;96486.38;;;6.28;100.00
30081;BME280;16902;50.816;12.828;2024-03-23T06:20:38;96482.69;;;6.15;100.00
30081;BME280;16902;50.816;12.828;2024-03-23T06:25:39;96480.69;;;6.17;100.00
30081;BME280;16902;50.816;12.828;2024-03-23T06:30:40;96482.81;;;6.29;100.00
30081;BME280;16902;50.816;12.828;2024-03-23T06:35:41;96443.66;;;6.32;100.00
30081;BME280;16902;50.816;12.828;2024-03-23T06:40:41;96443.44;;;6.48;100.00
30081;BME280;16902;50.816;12.828;2024-03-23T06:45:42;96432.00;;;6.64;100.00
30081;BME280;16902;50.816;12.828;2024-03-23T06:50:43;96425.97;;;6.85;100.00
30081;BME280;16902;50.816;12.828;2024-03-23T06:55:50;96412.16;;;6.99;100.00
30081;BME280;16902;50.816;12.828;2024-03-23T07:00:51;96408.41;;;7.02;100.00
30081;BME280;16902;50.816;12.828;2024-03-23T07:05:51;96388.38;;;7.17;100.00
30081;BME280;16902;50.816;12.828;2024-03-23T07:10:52;96387.66;;;7.43;100.00
30081;BME280;16902;50.816;12.828;2024-03-23T07:15:53;96360.25;;;7.62;100.00
30081;BME280;16902;50.816;12.828;2024-03-23T07:20:56;96348.53;;;7.79;100.00
30081;BME280;16902;50.816;12.828;2024-03-23T07:25:58;96345.97;;;8.06;100.00
30081;BME280;16902;50.816;12.828;2024-03-23T07:31:06;96329.44;;;8.20;100.00
30081;BME280;16902;50.816;12.828;2024-03-23T07:36:09;96320.06;;;8.52;100.00
30081;BME280;16902;50.816;12.828;2024-03-23T07:41:11;96330.41;;;8.65;100.00
30081;BME280;16902;50.816;12.828;2024-03-23T07:46:13;96332.97;;;8.92;100.00
30081;BME280;16902;50.816;12.828;2024-03-23T07:51:21;96318.81;;;9.33;100.00
30081;BME280;16902;50.816;12.828;2024-03-23T07:56:22;96310.38;;;9.82;100.00
30081;BME280;16902;50.816;12.828;2024-03-23T08:01:24;96292.72;;;10.16;100.00
30081;BME280;16902;50.816;12.828;2024-03-23T08:06:24;96291.03;;;10.28;100.00
30081;BME280;16902;50.816;12.828;2024-03-23T08:11:30;96308.19;;;10.36;100.00
30081;BME280;16902;50.816;12.828;2024-03-23T08:16:31;96318.09;;;10.45;100.00
30081;BME280;16902;50.816;12.828;2024-03-23T08:21:32;96310.81;;;10.54;100.00
30081;BME280;16902;50.816;12.828;2024-03-23T08:26:33;96314.41;;;10.53;100.00
30081;BME280;16902;50.816;12.828;2024-03-23T08:31:33;96317.56;;;10.37;100.00
30081;BME280;16902;50.816;12.828;2024-03-23T08:36:34;96319.56;;;10.10;100.00
30081;BME280;16902;50.816;12.828;2024-03-23T08:41:35;96327.66;;;9.95;100.00
30081;BME280;16902;50.816;12.828;2024-03-23T08:46:35;96315.69;;;9.94;100.00
30081;BME280;16902;50.816;12.828;2024-03-23T08:51:36;96324.94;;;9.83;100.00
30081;BME280;16902;50.816;12.828;2024-03-23T08:56:37;96392.28;;;8.68;100.00
30081;BME280;16902;50.816;12.828;2024-03-23T09:01:37;96420.66;;;7.76;100.00
30081;BME280;16902;50.816;12.828;2024-03-23T09:06:38;96469.56;;;6.60;100.00
30081;BME280;16902;50.816;12.828;2024-03-23T09:11:39;96513.53;;;5.87;100.00
30081;BME280;16902;50.816;12.828;2024-03-23T09:16:40;96553.75;;;5.08;100.00
30081;BME280;16902;50.816;12.828;2024-03-23T09:21:40;96558.00;;;4.78;100.00
30081;BME280;16902;50.816;12.828;2024-03-23T09:26:41;96582.13;;;4.62;100.00
30081;BME280;16902;50.816;12.828;2024-03-23T09:31:42;96584.88;;;3.98;100.00
30081;BME280;16902;50.816;12.828;2024-03-23T09:36:43;96629.34;;;3.84;100.00
30081;BME280;16902;50.816;12.828;2024-03-23T09:41:44;96647.84;;;3.88;100.00
30081;BME280;16902;50.816;12.828;2024-03-23T09:46:44;96663.78;;;3.75;100.00
30081;BME280;16902;50.816;12.828;2024-03-23T09:51:45;96695.81;;;3.56;100.00
30081;BME280;16902;50.816;12.828;2024-03-23T09:56:46;96739.88;;;3.37;100.00
30081;BME280;16902;50.816;12.828;2024-03-23T10:01:47;96766.09;;;3.40;100.00
30081;BME280;16902;50.816;12.828;2024-03-23T10:06:47;96774.09;;;3.37;100.00
30081;BME280;16902;50.816;12.828;2024-03-23T10:11:48;96785.25;;;3.54;100.00
30081;BME280;16902;50.816;12.828;2024-03-23T10:16:50;96807.94;;;3.58;100.00
30081;BME280;16902;50.816;12.828;2024-03-23T10:21:52;96824.47;;;3.56;100.00
30081;BME280;16902;50.816;12.828;2024-03-23T10:26:56;96841.34;;;3.50;100.00
30081;BME280;16902;50.816;12.828;2024-03-23T10:32:10;96855.50;;;3.46;100.00
30081;BME280;16902;50.816;12.828;2024-03-23T10:37:11;96875.47;;;3.60;100.00
30081;BME280;16902;50.816;12.828;2024-03-23T10:42:13;96881.47;;;3.27;100.00
30081;BME280;16902;50.816;12.828;2024-03-23T10:47:15;96885.03;;;3.26;100.00
30081;BME280;16902;50.816;12.828;2024-03-23T10:52:16;96882.16;;;3.29;100.00
30081;BME280;16902;50.816;12.828;2024-03-23T10:57:23;96898.75;;;3.43;100.00
30081;BME280;16902;50.816;12.828;2024-03-23T11:02:27;96900.63;;;3.32;100.00
30081;BME280;16902;50.816;12.828;2024-03-23T11:07:33;96906.09;;;3.29;100.00
30081;BME280;16902;50.816;12.828;2024-03-23T11:12:36;96910.66;;;3.52;100.00
30081;BME280;16902;50.816;12.828;2024-03-23T11:17:38;96904.56;;;3.45;100.00
30081;BME280;16902;50.816;12.828;2024-03-23T11:22:46;96905.84;;;3.57;100.00
30081;BME280;16902;50.816;12.828;2024-03-23T11:27:56;96916.69;;;3.77;100.00
30081;BME280;16902;50.816;12.828;2024-03-23T11:33:02;96921.94;;;4.26;100.00
30081;BME280;16902;50.816;12.828;2024-03-23T11:43:09;96913.72;;;4.30;100.00
30081;BME280;16902;50.816;12.828;2024-03-23T11:48:15;96908.22;;;4.66;100.00
30081;BME280;16902;50.816;12.828;2024-03-23T11:53:20;96902.69;;;4.77;100.00
30081;BME280;16902;50.816;12.828;2024-03-23T11:58:22;96897.84;;;4.90;100.00
30081;BME280;16902;50.816;12.828;2024-03-23T12:03:24;96920.66;;;5.18;100.00
30081;BME280;16902;50.816;12.828;2024-03-23T12:08:33;96921.94;;;5.22;100.00
30081;BME280;16902;50.816;12.828;2024-03-23T12:13:34;96917.84;;;4.64;100.00
30081;BME280;16902;50.816;12.828;2024-03-23T12:18:35;96927.56;;;4.46;100.00
30081;BME280;16902;50.816;12.828;2024-03-23T12:23:39;96935.75;;;4.33;100.00
30081;BME280;16902;50.816;12.828;2024-03-23T12:28:39;96935.44;;;4.28;100.00
30081;BME280;16902;50.816;12.828;2024-03-23T12:33:40;96931.53;;;3.99;100.00
30081;BME280;16902;50.816;12.828;2024-03-23T12:38:41;96951.31;;;3.91;100.00
30081;BME280;16902;50.816;12.828;2024-03-23T12:43:41;96952.50;;;4.29;100.00
30081;BME280;16902;50.816;12.828;2024-03-23T12:48:44;96955.88;;;4.95;100.00
30081;BME280;16902;50.816;12.828;2024-03-23T12:53:45;96941.72;;;6.92;100.00
30081;BME280;16902;50.816;12.828;2024-03-23T12:58:46;96938.97;;;10.46;100.00
30081;BME280;16902;50.816;12.828;2024-03-23T13:03:51;96939.97;;;11.90;100.00
30081;BME280;16902;50.816;12.828;2024-03-23T13:08:52;96920.59;;;12.11;100.00
30081;BME280;16902;50.816;12.828;2024-03-23T13:13:55;96921.75;;;9.64;100.00
30081;BME280;16902;50.816;12.828;2024-03-23T13:18:55;96928.84;;;7.58;100.00
30081;BME280;16902;50.816;12.828;2024-03-23T13:23:56;96921.75;;;9.23;100.00
30081;BME280;16902;50.816;12.828;2024-03-23T13:28:57;96917.72;;;9.55;100.00
30081;BME280;16902;50.816;12.828;2024-03-23T13:33:58;96916.09;;;8.14;100.00
30081;BME280;16902;50.816;12.828;2024-03-23T13:38:58;96901.28;;;9.07;100.00
30081;BME280;16902;50.816;12.828;2024-03-23T13:43:59;96886.53;;;10.36;100.00
30081;BME280;16902;50.816;12.828;2024-03-23T13:49:00;96892.66;;;10.02;100.00
30081;BME280;16902;50.816;12.828;2024-03-23T13:54:01;96881.72;;;10.46;100.00
30081;BME280;16902;50.816;12.828;2024-03-23T13:59:02;96879.94;;;11.45;100.00
30081;BME280;16902;50.816;12.828;2024-03-23T14:04:03;96863.94;;;13.11;100.00
30081;BME280;16902;50.816;12.828;2024-03-23T14:09:05;96877.59;;;12.45;100.00
30081;BME280;16902;50.816;12.828;2024-03-23T14:14:05;96882.31;;;11.98;100.00
30081;BME280;16902;50.816;12.828;2024-03-23T14:19:06;96873.91;;;10.26;100.00
30081;BME280;16902;50.816;12.828;2024-03-23T14:24:07;96875.50;;;8.42;100.00
30081;BME280;16902;50.816;12.828;2024-03-23T14:29:09;96881.22;;;7.59;100.00
30081;BME280;16902;50.816;12.828;2024-03-23T14:34:10;96880.31;;;7.30;100.00
30081;BME280;16902;50.816;12.828;2024-03-23T14:39:11;96866.22;;;7.90;100.00
30081;BME280;16902;50.816;12.828;2024-03-23T14:44:15;96863.78;;;9.64;100.00
30081;BME280;16902;50.816;12.828;2024-03-23T14:49:16;96876.25;;;9.34;100.00
30081;BME280;16902;50.816;12.828;2024-03-23T14:54:17;96870.34;;;8.77;100.00
30081;BME280;16902;50.816;12.828;2024-03-23T14:59:17;96892.38;;;8.60;100.00
30081;BME280;16902;50.816;12.828;2024-03-23T15:04:20;96886.59;;;8.36;100.00
30081;BME280;16902;50.816;12.828;2024-03-23T15:09:20;96891.59;;;8.16;100.00
30081;BME280;16902;50.816;12.828;2024-03-23T15:14:21;96873.94;;;7.84;100.00
30081;BME280;16902;50.816;12.828;2024-03-23T15:19:23;96881.91;;;8.04;100.00
30081;BME280;16902;50.816;12.828;2024-03-23T15:24:25;96890.09;;;8.07;100.00
30081;BME280;16902;50.816;12.828;2024-03-23T15:29:26;96880.13;;;8.47;100.00
30081;BME280;16902;50.816;12.828;2024-03-23T15:34:27;96872.56;;;8.31;100.00
30081;BME280;16902;50.816;12.828;2024-03-23T15:39:29;96863.69;;;8.40;100.00
30081;BME280;16902;50.816;12.828;2024-03-23T15:44:29;96856.34;;;8.43;100.00
30081;BME280;16902;50.816;12.828;2024-03-23T15:49:30;96864.94;;;8.22;100.00
30081;BME280;16902;50.816;12.828;2024-03-23T15:54:31;96859.34;;;7.83;100.00
30081;BME280;16902;50.816;12.828;2024-03-23T15:59:32;96858.50;;;7.76;100.00
30081;BME280;16902;50.816;12.828;2024-03-23T16:04:33;96875.19;;;7.52;100.00
30081;BME280;16902;50.816;12.828;2024-03-23T16:09:33;96910.31;;;5.88;100.00
30081;BME280;16902;50.816;12.828;2024-03-23T16:14:34;96898.19;;;5.27;100.00
30081;BME280;16902;50.816;12.828;2024-03-23T16:19:35;96890.78;;;4.76;100.00
30081;BME280;16902;50.816;12.828;2024-03-23T16:24:36;96908.06;;;4.51;100.00
30081;BME280;16902;50.816;12.828;2024-03-23T16:29:36;96910.28;;;4.54;100.00
30081;BME280;16902;50.816;12.828;2024-03-23T16:34:37;96899.97;;;4.79;100.00
30081;BME280;16902;50.816;12.828;2024-03-23T16:39:38;96909.69;;;5.16;100.00
30081;BME280;16902;50.816;12.828;2024-03-23T16:44:39;96904.78;;;4.90;100.00
30081;BME280;16902;50.816;12.828;2024-03-23T16:49:40;96893.72;;;4.65;100.00
30081;BME280;16902;50.816;12.828;2024-03-23T16:54:41;96899.84;;;4.56;100.00
30081;BME280;16902;50.816;12.828;2024-03-23T16:59:42;96915.63;;;4.53;100.00
30081;BME280;16902;50.816;12.828;2024-03-23T17:04:43;96924.97;;;4.46;100.00
30081;BME280;16902;50.816;12.828;2024-03-23T17:09:47;96912.41;;;4.26;100.00
30081;BME280;16902;50.816;12.828;2024-03-23T17:14:48;96906.78;;;4.31;100.00
30081;BME280;16902;50.816;12.828;2024-03-23T17:19:49;96905.00;;;4.48;100.00
30081;BME280;16902;50.816;12.828;2024-03-23T17:24:52;96904.69;;;4.51;100.00
30081;BME280;16902;50.816;12.828;2024-03-23T17:29:53;96896.78;;;4.52;100.00
30081;BME280;16902;50.816;12.828;2024-03-23T17:34:54;96881.31;;;4.44;100.00
30081;BME280;16902;50.816;12.828;2024-03-23T17:39:55;96883.25;;;4.34;100.00
30081;BME280;16902;50.816;12.828;2024-03-23T17:44:56;96884.53;;;4.30;100.00
30081;BME280;16902;50.816;12.828;2024-03-23T17:49:57;96885.34;;;4.06;100.00
30081;BME280;16902;50.816;12.828;2024-03-23T17:54:59;96888.22;;;3.86;100.00
30081;BME280;16902;50.816;12.828;2024-03-23T18:00:00;96886.47;;;3.87;100.00
30081;BME280;16902;50.816;12.828;2024-03-23T18:05:11;96898.19;;;3.73;100.00
30081;BME280;16902;50.816;12.828;2024-03-23T18:10:12;96901.94;;;3.87;100.00
30081;BME280;16902;50.816;12.828;2024-03-23T18:15:14;96909.47;;;3.80;100.00
30081;BME280;16902;50.816;12.828;2024-03-23T18:20:15;96911.97;;;3.56;100.00
30081;BME280;16902;50.816;12.828;2024-03-23T18:25:15;96923.41;;;3.61;100.00
30081;BME280;16902;50.816;12.828;2024-03-23T18:30:16;96918.78;;;3.81;100.00
30081;BME280;16902;50.816;12.828;2024-03-23T18:35:17;96927.66;;;3.95;100.00
30081;BME280;16902;50.816;12.828;2024-03-23T18:40:18;96931.41;;;4.09;100.00
30081;BME280;16902;50.816;12.828;2024-03-23T18:45:19;96934.47;;;4.21;100.00
30081;BME280;16902;50.816;12.828;2024-03-23T18:50:21;96929.19;;;4.30;100.00
30081;BME280;16902;50.816;12.828;2024-03-23T18:55:22;96931.25;;;4.43;100.00
30081;BME280;16902;50.816;12.828;2024-03-23T19:00:23;96935.59;;;4.51;100.00
30081;BME280;16902;50.816;12.828;2024-03-23T19:05:24;96936.56;;;4.58;100.00
30081;BME280;16902;50.816;12.828;2024-03-23T19:10:25;96931.91;;;4.45;100.00
30081;BME280;16902;50.816;12.828;2024-03-23T19:15:26;96932.38;;;4.32;100.00
30081;BME280;16902;50.816;12.828;2024-03-23T19:20:27;96932.38;;;4.16;100.00
30081;BME280;16902;50.816;12.828;2024-03-23T19:25:28;96933.47;;;4.05;100.00
30081;BME280;16902;50.816;12.828;2024-03-23T19:30:29;96933.13;;;3.84;100.00
30081;BME280;16902;50.816;12.828;2024-03-23T19:35:30;96940.31;;;3.72;100.00
30081;BME280;16902;50.816;12.828;2024-03-23T19:40:31;96933.53;;;3.55;100.00
30081;BME280;16902;50.816;12.828;2024-03-23T19:45:35;96919.31;;;3.43;100.00
30081;BME280;16902;50.816;12.828;2024-03-23T19:50:37;96928.59;;;3.27;100.00
30081;BME280;16902;50.816;12.828;2024-03-23T19:55:38;96924.56;;;3.25;100.00
30081;BME280;16902;50.816;12.828;2024-03-23T20:00:39;96921.84;;;3.26;100.00
30081;BME280;16902;50.816;12.828;2024-03-23T20:05:40;96922.91;;;3.16;100.00
30081;BME280;16902;50.816;12.828;2024-03-23T20:10:46;96918.66;;;2.98;100.00
30081;BME280;16902;50.816;12.828;2024-03-23T20:15:52;96922.13;;;2.89;100.00
30081;BME280;16902;50.816;12.828;2024-03-23T20:20:54;96922.75;;;2.83;100.00
30081;BME280;16902;50.816;12.828;2024-03-23T20:25:58;96921.88;;;2.74;100.00
30081;BME280;16902;50.816;12.828;2024-03-23T20:31:01;96923.34;;;2.77;100.00
30081;BME280;16902;50.816;12.828;2024-03-23T20:36:03;96921.22;;;2.72;100.00
30081;BME280;16902;50.816;12.828;2024-03-23T20:41:04;96931.44;;;2.64;100.00
30081;BME280;16902;50.816;12.828;2024-03-23T20:46:05;96929.19;;;2.61;100.00
30081;BME280;16902;50.816;12.828;2024-03-23T20:51:07;96917.63;;;2.65;100.00
30081;BME280;16902;50.816;12.828;2024-03-23T20:56:11;96912.81;;;2.62;100.00
30081;BME280;16902;50.816;12.828;2024-03-23T21:01:12;96915.31;;;2.54;100.00
30081;BME280;16902;50.816;12.828;2024-03-23T21:06:13;96915.56;;;2.43;100.00
30081;BME280;16902;50.816;12.828;2024-03-23T21:11:13;96911.97;;;2.36;100.00
30081;BME280;16902;50.816;12.828;2024-03-23T21:16:18;96900.53;;;2.30;100.00
30081;BME280;16902;50.816;12.828;2024-03-23T21:21:19;96903.91;;;2.30;100.00
30081;BME280;16902;50.816;12.828;2024-03-23T21:26:20;96906.63;;;2.29;100.00
30081;BME280;16902;50.816;12.828;2024-03-23T21:31:21;96891.44;;;2.36;100.00
30081;BME280;16902;50.816;12.828;2024-03-23T21:36:22;96891.22;;;2.47;100.00
30081;BME280;16902;50.816;12.828;2024-03-23T21:41:24;96887.72;;;2.56;100.00
30081;BME280;16902;50.816;12.828;2024-03-23T21:46:28;96883.59;;;2.63;100.00
30081;BME280;16902;50.816;12.828;2024-03-23T21:51:29;96881.19;;;2.62;100.00
30081;BME280;16902;50.816;12.828;2024-03-23T21:56:30;96876.34;;;2.58;100.00
30081;BME280;16902;50.816;12.828;2024-03-23T22:01:31;96877.31;;;2.57;100.00
30081;BME280;16902;50.816;12.828;2024-03-23T22:06:32;96870.69;;;2.55;100.00
30081;BME280;16902;50.816;12.828;2024-03-23T22:11:32;96859.78;;;2.53;100.00
30081;BME280;16902;50.816;12.828;2024-03-23T22:16:33;96858.16;;;2.52;100.00
30081;BME280;16902;50.816;12.828;2024-03-23T22:21:34;96861.31;;;2.46;100.00
30081;BME280;16902;50.816;12.828;2024-03-23T22:26:35;96855.38;;;2.45;100.00
30081;BME280;16902;50.816;12.828;2024-03-23T22:31:37;96865.00;;;2.43;100.00
30081;BME280;16902;50.816;12.828;2024-03-23T22:36:37;96850.19;;;2.37;100.00
30081;BME280;16902;50.816;12.828;2024-03-23T22:41:38;96845.06;;;2.37;100.00
30081;BME280;16902;50.816;12.828;2024-03-23T22:46:39;96842.69;;;2.44;100.00
30081;BME280;16902;50.816;12.828;2024-03-23T22:51:41;96837.75;;;2.50;100.00
30081;BME280;16902;50.816;12.828;2024-03-23T22:56:41;96835.16;;;2.50;100.00
30081;BME280;16902;50.816;12.828;2024-03-23T23:01:42;96834.19;;;2.43;100.00
30081;BME280;16902;50.816;12.828;2024-03-23T23:06:43;96824.53;;;2.37;100.00
30081;BME280;16902;50.816;12.828;2024-03-23T23:11:44;96828.19;;;2.35;100.00
30081;BME280;16902;50.816;12.828;2024-03-23T23:16:45;96819.66;;;2.34;100.00
30081;BME280;16902;50.816;12.828;2024-03-23T23:21:47;96814.38;;;2.36;100.00
30081;BME280;16902;50.816;12.828;2024-03-23T23:26:48;96809.47;;;2.42;100.00
30081;BME280;16902;50.816;12.828;2024-03-23T23:31:49;96809.81;;;2.47;100.00
30081;BME280;16902;50.816;12.828;2024-03-23T23:36:50;96800.00;;;2.51;100.00
30081;BME280;16902;50.816;12.828;2024-03-23T23:41:51;96800.00;;;2.51;100.00
30081;BME280;16902;50.816;12.828;2024-03-23T23:46:52;96793.59;;;2.47;100.00
30081;BME280;16902;50.816;12.828;2024-03-23T23:51:53;96790.81;;;2.40;100.00
30081;BME280;16902;50.816;12.828;2024-03-23T23:56:54;96777.44;;;2.37;100.00
